Red Deer Regional Airport
CYQF : now visible

Airfield :











YOU CAN JOIN US ON...

 
LOGIN :

Register | Disclaimer

   EN    FR    IT 

 









Legend :    VFR   Marginal VFR   IFR   Intensive IFR   Very Intensive IFR
Visi :
Ceiling :
>= 8 km
>= 3000ft
5 to 8 km
1000 to 3000 ft
1500m to 5 km
500 to 1000 ft
800 to 1500m
200 to 500 ft
< 800m
< 200 ft
Symbols :   Thunderstorms  Fog  Heavy snow  Heavy precipitations  Wind > 20 kt






- Airport Elevation : 2968 ft
- IATA code : YQF


CYQF - Red Deer Regional

CURRENT METAR :
  • 280400Z AUTO 24007KT 9SM CLR 17/02 A2996 RMK SLP154 DENSITY ALT 3800FT

EXPIRED METARs :
  • 280300Z AUTO 18010KT 9SM OVC110 18/03 A2994 RMK SLP149 DENSITY ALT 4000FT
  • 280200Z AUTO 18009G15KT 9SM OVC100 19/02 A2994 RMK SLP149 DENSITY ALT 4200FT
  • 280100Z AUTO 20012G19KT 9SM BKN110 21/00 A2993 RMK SLP148 DENSITY ALT 4300FT
  • 280000Z AUTO 16013G21KT 9SM CLR 21/02 A2994 RMK SLP154 DENSITY ALT 4400FT

TAF TAF CYQF
Valid from the 28 at 00:00 until the 28 at 12:00 UTC


272346Z 2800/2812 15008G18KT P6SM FEW080
BECMG 2802/2804 VRB03KT
FM280400 VRB03KT P6SM BKN200 RMK FCST BASED ON AUTO OBS. NXT FCST BY 280600Z
CZEG FIR / North America



MET'MAP, your aeronautical weather chart ! - Copyright ORBIFLY December 2007 - Disclaimer

ORBIFLY MET'MAP TEAM :

Programming & Development : Alexandra Zaïnal
Original concept : Baudouin d'Aumeries
Technical & hardware support : Manuel Goepfert
Assistance : Marc-Olivier Méhu




SOURCES & CREDITS :

   NOAA       Earth
Advisory